sensor_id;sensor_type;location;lat;lon;timestamp;pressure;altitude;pressure_sealevel;temperature;humidity
62072;BME280;48031;48.542;13.232;2023-02-15T00:03:23;98827.31;;;6.27;59.44
62072;BME280;48031;48.542;13.232;2023-02-15T00:07:25;98828.66;;;6.16;59.64
62072;BME280;48031;48.542;13.232;2023-02-15T00:11:27;98824.13;;;5.88;60.33
62072;BME280;48031;48.542;13.232;2023-02-15T00:15:41;98829.94;;;6.56;59.11
62072;BME280;48031;48.542;13.232;2023-02-15T00:19:43;98830.91;;;6.13;58.99
62072;BME280;48031;48.542;13.232;2023-02-15T00:23:45;98819.84;;;6.44;59.49
62072;BME280;48031;48.542;13.232;2023-02-15T00:27:46;98808.28;;;6.50;58.87
62072;BME280;48031;48.542;13.232;2023-02-15T00:31:48;98821.28;;;6.25;59.48
62072;BME280;48031;48.542;13.232;2023-02-15T00:35:56;98812.91;;;6.56;58.49
62072;BME280;48031;48.542;13.232;2023-02-15T00:39:58;98808.91;;;5.95;59.67
62072;BME280;48031;48.542;13.232;2023-02-15T00:44:00;98806.56;;;5.77;59.25
62072;BME280;48031;48.542;13.232;2023-02-15T00:48:03;98797.34;;;6.37;58.26
62072;BME280;48031;48.542;13.232;2023-02-15T00:52:05;98795.72;;;6.21;58.02
62072;BME280;48031;48.542;13.232;2023-02-15T00:56:07;98805.34;;;5.79;59.03
62072;BME280;48031;48.542;13.232;2023-02-15T01:00:09;98797.28;;;6.30;57.55
62072;BME280;48031;48.542;13.232;2023-02-15T01:04:11;98796.16;;;6.39;57.66
62072;BME280;48031;48.542;13.232;2023-02-15T01:08:13;98797.00;;;6.40;57.93
62072;BME280;48031;48.542;13.232;2023-02-15T01:12:14;98795.19;;;6.11;58.53
62072;BME280;48031;48.542;13.232;2023-02-15T01:16:17;98793.00;;;5.70;59.24
62072;BME280;48031;48.542;13.232;2023-02-15T01:20:21;98790.34;;;6.42;58.41
62072;BME280;48031;48.542;13.232;2023-02-15T01:24:23;98788.88;;;6.18;57.55
62072;BME280;48031;48.542;13.232;2023-02-15T01:28:25;98774.88;;;5.94;58.63
62072;BME280;48031;48.542;13.232;2023-02-15T01:32:27;98780.81;;;5.74;58.95
62072;BME280;48031;48.542;13.232;2023-02-15T01:36:29;98777.19;;;5.97;59.03
62072;BME280;48031;48.542;13.232;2023-02-15T01:40:31;98778.22;;;5.66;59.80
62072;BME280;48031;48.542;13.232;2023-02-15T01:44:50;98773.75;;;6.03;59.68
62072;BME280;48031;48.542;13.232;2023-02-15T01:49:00;98769.28;;;6.31;58.46
62072;BME280;48031;48.542;13.232;2023-02-15T01:57:27;98751.88;;;5.62;59.70
62072;BME280;48031;48.542;13.232;2023-02-15T02:01:30;98743.56;;;5.93;58.42
62072;BME280;48031;48.542;13.232;2023-02-15T02:05:32;98729.94;;;6.15;58.42
62072;BME280;48031;48.542;13.232;2023-02-15T02:09:36;98732.91;;;6.63;57.14
62072;BME280;48031;48.542;13.232;2023-02-15T02:13:43;98727.44;;;6.56;57.74
62072;BME280;48031;48.542;13.232;2023-02-15T02:18:32;98717.47;;;6.78;55.96
62072;BME280;48031;48.542;13.232;2023-02-15T02:22:43;98718.97;;;6.87;57.06
62072;BME280;48031;48.542;13.232;2023-02-15T02:27:09;98717.13;;;6.39;58.66
62072;BME280;48031;48.542;13.232;2023-02-15T02:31:40;98729.75;;;6.59;56.30
62072;BME280;48031;48.542;13.232;2023-02-15T02:40:17;98711.34;;;6.91;56.98
62072;BME280;48031;48.542;13.232;2023-02-15T02:48:32;98721.19;;;6.13;58.56
62072;BME280;48031;48.542;13.232;2023-02-15T02:52:41;98709.97;;;7.08;57.33
62072;BME280;48031;48.542;13.232;2023-02-15T02:56:47;98709.31;;;6.72;57.67
62072;BME280;48031;48.542;13.232;2023-02-15T03:00:52;98713.44;;;6.95;57.46
62072;BME280;48031;48.542;13.232;2023-02-15T03:05:03;98713.63;;;6.94;57.60
62072;BME280;48031;48.542;13.232;2023-02-15T03:09:15;98712.19;;;6.70;57.96
62072;BME280;48031;48.542;13.232;2023-02-15T03:13:20;98700.38;;;6.71;56.34
62072;BME280;48031;48.542;13.232;2023-02-15T03:17:25;98700.31;;;6.92;56.87
62072;BME280;48031;48.542;13.232;2023-02-15T03:21:45;98696.75;;;7.13;56.78
62072;BME280;48031;48.542;13.232;2023-02-15T03:26:02;98695.88;;;7.06;56.20
62072;BME280;48031;48.542;13.232;2023-02-15T03:30:09;98688.53;;;6.44;58.14
62072;BME280;48031;48.542;13.232;2023-02-15T03:34:13;98685.81;;;6.93;56.54
62072;BME280;48031;48.542;13.232;2023-02-15T03:38:36;98684.06;;;7.14;56.51
62072;BME280;48031;48.542;13.232;2023-02-15T03:42:40;98693.88;;;5.95;59.10
62072;BME280;48031;48.542;13.232;2023-02-15T03:46:52;98693.00;;;6.58;58.82
62072;BME280;48031;48.542;13.232;2023-02-15T03:50:59;98690.81;;;6.68;58.26
62072;BME280;48031;48.542;13.232;2023-02-15T03:55:21;98693.09;;;5.86;60.07
62072;BME280;48031;48.542;13.232;2023-02-15T03:59:23;98689.78;;;6.69;57.78
62072;BME280;48031;48.542;13.232;2023-02-15T04:04:01;98679.38;;;6.66;59.05
62072;BME280;48031;48.542;13.232;2023-02-15T04:08:04;98681.31;;;6.73;58.60
62072;BME280;48031;48.542;13.232;2023-02-15T04:12:06;98686.06;;;6.71;57.12
62072;BME280;48031;48.542;13.232;2023-02-15T04:16:09;98686.09;;;6.77;58.41
62072;BME280;48031;48.542;13.232;2023-02-15T04:20:13;98685.66;;;6.46;58.43
62072;BME280;48031;48.542;13.232;2023-02-15T04:24:33;98685.50;;;6.82;58.06
62072;BME280;48031;48.542;13.232;2023-02-15T04:28:54;98690.72;;;6.34;58.18
62072;BME280;48031;48.542;13.232;2023-02-15T04:32:56;98683.09;;;6.65;58.81
62072;BME280;48031;48.542;13.232;2023-02-15T04:36:58;98684.41;;;6.48;58.55
62072;BME280;48031;48.542;13.232;2023-02-15T04:41:01;98681.59;;;6.84;58.42
62072;BME280;48031;48.542;13.232;2023-02-15T04:45:03;98689.66;;;6.29;58.79
62072;BME280;48031;48.542;13.232;2023-02-15T04:49:05;98680.41;;;6.65;57.70
62072;BME280;48031;48.542;13.232;2023-02-15T04:53:08;98686.53;;;6.32;59.16
62072;BME280;48031;48.542;13.232;2023-02-15T04:57:10;98686.63;;;6.38;58.55
62072;BME280;48031;48.542;13.232;2023-02-15T05:01:12;98681.59;;;6.14;58.59
62072;BME280;48031;48.542;13.232;2023-02-15T05:05:16;98687.25;;;6.40;59.45
62072;BME280;48031;48.542;13.232;2023-02-15T05:09:18;98690.75;;;6.13;59.12
62072;BME280;48031;48.542;13.232;2023-02-15T05:13:20;98688.97;;;5.69;61.41
62072;BME280;48031;48.542;13.232;2023-02-15T05:17:22;98692.41;;;6.35;58.74
62072;BME280;48031;48.542;13.232;2023-02-15T05:21:24;98686.31;;;6.05;58.95
62072;BME280;48031;48.542;13.232;2023-02-15T05:25:26;98694.44;;;5.11;60.80
62072;BME280;48031;48.542;13.232;2023-02-15T05:29:47;98692.97;;;5.73;60.17
62072;BME280;48031;48.542;13.232;2023-02-15T05:33:49;98690.38;;;5.65;59.72
62072;BME280;48031;48.542;13.232;2023-02-15T05:37:51;98685.06;;;5.72;59.76
62072;BME280;48031;48.542;13.232;2023-02-15T05:41:53;98691.88;;;6.04;59.11
62072;BME280;48031;48.542;13.232;2023-02-15T05:45:55;98693.50;;;5.18;59.84
62072;BME280;48031;48.542;13.232;2023-02-15T05:49:58;98695.28;;;5.76;58.92
62072;BME280;48031;48.542;13.232;2023-02-15T05:53:59;98701.56;;;5.98;58.67
62072;BME280;48031;48.542;13.232;2023-02-15T05:58:02;98699.59;;;5.41;58.80
62072;BME280;48031;48.542;13.232;2023-02-15T06:02:04;98705.91;;;5.49;58.97
62072;BME280;48031;48.542;13.232;2023-02-15T06:06:08;98716.63;;;5.78;58.62
62072;BME280;48031;48.542;13.232;2023-02-15T06:10:10;98723.94;;;5.33;60.08
62072;BME280;48031;48.542;13.232;2023-02-15T06:14:12;98741.66;;;4.61;61.58
62072;BME280;48031;48.542;13.232;2023-02-15T06:18:14;98726.66;;;5.84;58.97
62072;BME280;48031;48.542;13.232;2023-02-15T06:22:16;98726.38;;;5.94;58.25
62072;BME280;48031;48.542;13.232;2023-02-15T06:26:18;98731.28;;;6.26;58.05
62072;BME280;48031;48.542;13.232;2023-02-15T06:30:20;98731.66;;;6.65;56.74
62072;BME280;48031;48.542;13.232;2023-02-15T06:34:22;98738.03;;;6.37;56.97
62072;BME280;48031;48.542;13.232;2023-02-15T06:38:24;98746.94;;;6.16;57.43
62072;BME280;48031;48.542;13.232;2023-02-15T06:42:25;98761.16;;;5.15;59.96
62072;BME280;48031;48.542;13.232;2023-02-15T06:46:27;98756.03;;;6.51;56.46
62072;BME280;48031;48.542;13.232;2023-02-15T06:50:29;98757.38;;;6.04;57.23
62072;BME280;48031;48.542;13.232;2023-02-15T06:54:31;98755.09;;;6.22;57.35
62072;BME280;48031;48.542;13.232;2023-02-15T06:58:33;98751.78;;;5.40;58.74
62072;BME280;48031;48.542;13.232;2023-02-15T07:02:35;98752.78;;;6.19;57.18
62072;BME280;48031;48.542;13.232;2023-02-15T07:06:36;98753.97;;;5.96;57.43
62072;BME280;48031;48.542;13.232;2023-02-15T07:10:38;98752.59;;;6.42;57.10
62072;BME280;48031;48.542;13.232;2023-02-15T07:14:40;98762.75;;;6.61;56.42
62072;BME280;48031;48.542;13.232;2023-02-15T07:18:42;98749.00;;;6.78;56.97
62072;BME280;48031;48.542;13.232;2023-02-15T07:22:44;98761.53;;;6.85;56.49
62072;BME280;48031;48.542;13.232;2023-02-15T07:26:46;98755.25;;;6.00;57.68
62072;BME280;48031;48.542;13.232;2023-02-15T07:30:48;98754.31;;;6.92;55.89
62072;BME280;48031;48.542;13.232;2023-02-15T07:34:50;98758.25;;;6.26;56.82
62072;BME280;48031;48.542;13.232;2023-02-15T07:38:52;98750.75;;;5.41;59.27
62072;BME280;48031;48.542;13.232;2023-02-15T07:42:57;98752.72;;;7.04;57.42
62072;BME280;48031;48.542;13.232;2023-02-15T07:47:00;98753.22;;;6.87;54.92
62072;BME280;48031;48.542;13.232;2023-02-15T07:51:06;98752.63;;;7.19;55.32
62072;BME280;48031;48.542;13.232;2023-02-15T07:55:08;98749.31;;;6.47;56.48
62072;BME280;48031;48.542;13.232;2023-02-15T07:59:10;98755.91;;;6.87;55.44
62072;BME280;48031;48.542;13.232;2023-02-15T08:03:12;98751.53;;;7.07;55.26
62072;BME280;48031;48.542;13.232;2023-02-15T08:07:16;98744.72;;;6.62;55.72
62072;BME280;48031;48.542;13.232;2023-02-15T08:11:21;98735.50;;;7.81;54.70
62072;BME280;48031;48.542;13.232;2023-02-15T08:15:37;98734.59;;;6.71;55.35
62072;BME280;48031;48.542;13.232;2023-02-15T08:19:39;98739.13;;;6.42;55.48
62072;BME280;48031;48.542;13.232;2023-02-15T08:23:41;98740.25;;;6.76;56.58
62072;BME280;48031;48.542;13.232;2023-02-15T08:27:43;98756.81;;;6.94;54.49
62072;BME280;48031;48.542;13.232;2023-02-15T08:31:45;98748.34;;;6.76;55.15
62072;BME280;48031;48.542;13.232;2023-02-15T08:35:47;98739.66;;;7.08;54.72
62072;BME280;48031;48.542;13.232;2023-02-15T08:39:49;98747.19;;;7.40;53.18
62072;BME280;48031;48.542;13.232;2023-02-15T08:43:53;98748.75;;;7.63;53.61
62072;BME280;48031;48.542;13.232;2023-02-15T08:47:55;98747.50;;;7.24;53.82
62072;BME280;48031;48.542;13.232;2023-02-15T08:51:57;98745.38;;;6.92;55.15
62072;BME280;48031;48.542;13.232;2023-02-15T08:55:59;98746.25;;;7.27;54.30
62072;BME280;48031;48.542;13.232;2023-02-15T09:00:02;98742.09;;;7.24;54.67
62072;BME280;48031;48.542;13.232;2023-02-15T09:04:07;98751.56;;;6.64;56.18
62072;BME280;48031;48.542;13.232;2023-02-15T09:08:12;98761.81;;;5.91;57.77
62072;BME280;48031;48.542;13.232;2023-02-15T09:12:14;98751.97;;;7.45;53.90
62072;BME280;48031;48.542;13.232;2023-02-15T09:16:16;98750.72;;;7.47;53.04
62072;BME280;48031;48.542;13.232;2023-02-15T09:20:20;98752.63;;;7.53;53.16
62072;BME280;48031;48.542;13.232;2023-02-15T09:24:23;98751.47;;;7.69;52.57
62072;BME280;48031;48.542;13.232;2023-02-15T09:28:25;98744.03;;;7.37;53.55
62072;BME280;48031;48.542;13.232;2023-02-15T09:32:26;98738.84;;;7.35;53.38
62072;BME280;48031;48.542;13.232;2023-02-15T09:36:33;98742.69;;;8.08;52.91
62072;BME280;48031;48.542;13.232;2023-02-15T09:40:40;98736.47;;;8.08;52.34
62072;BME280;48031;48.542;13.232;2023-02-15T10:07:38;98726.69;;;7.59;52.54
62072;BME280;48031;48.542;13.232;2023-02-15T10:16:40;98721.00;;;7.41;54.42
62072;BME280;48031;48.542;13.232;2023-02-15T10:33:38;98696.84;;;7.74;53.94
62072;BME280;48031;48.542;13.232;2023-02-15T10:38:20;98707.19;;;7.70;54.56
62072;BME280;48031;48.542;13.232;2023-02-15T10:47:03;98697.31;;;6.81;56.98
62072;BME280;48031;48.542;13.232;2023-02-15T10:51:45;98693.50;;;8.85;52.90
62072;BME280;48031;48.542;13.232;2023-02-15T11:08:18;98689.44;;;6.51;58.54
62072;BME280;48031;48.542;13.232;2023-02-15T11:12:23;98675.75;;;8.23;53.26
62072;BME280;48031;48.542;13.232;2023-02-15T11:16:31;98680.91;;;8.05;54.07
62072;BME280;48031;48.542;13.232;2023-02-15T11:20:52;98684.03;;;8.02;54.85
62072;BME280;48031;48.542;13.232;2023-02-15T11:24:57;98685.31;;;6.83;57.54
62072;BME280;48031;48.542;13.232;2023-02-15T11:29:09;98682.34;;;7.94;55.06
62072;BME280;48031;48.542;13.232;2023-02-15T11:33:21;98686.09;;;7.05;57.37
62072;BME280;48031;48.542;13.232;2023-02-15T11:37:35;98677.69;;;8.49;53.35
62072;BME280;48031;48.542;13.232;2023-02-15T11:41:41;98660.00;;;7.19;56.31
62072;BME280;48031;48.542;13.232;2023-02-15T11:45:46;98676.47;;;7.78;54.46
62072;BME280;48031;48.542;13.232;2023-02-15T11:49:48;98666.72;;;7.83;54.55
62072;BME280;48031;48.542;13.232;2023-02-15T11:53:50;98668.22;;;7.04;56.56
62072;BME280;48031;48.542;13.232;2023-02-15T12:02:33;98647.19;;;7.88;54.05
62072;BME280;48031;48.542;13.232;2023-02-15T12:06:42;98633.94;;;8.85;52.25
62072;BME280;48031;48.542;13.232;2023-02-15T12:11:09;98633.56;;;9.90;50.18
62072;BME280;48031;48.542;13.232;2023-02-15T12:15:14;98640.00;;;8.48;52.52
62072;BME280;48031;48.542;13.232;2023-02-15T12:23:27;98611.53;;;9.36;50.67
62072;BME280;48031;48.542;13.232;2023-02-15T12:27:33;98625.84;;;8.59;52.04
62072;BME280;48031;48.542;13.232;2023-02-15T12:31:39;98612.28;;;9.87;49.82
62072;BME280;48031;48.542;13.232;2023-02-15T12:35:43;98604.63;;;9.40;50.03
62072;BME280;48031;48.542;13.232;2023-02-15T12:39:59;98594.78;;;9.83;49.32
62072;BME280;48031;48.542;13.232;2023-02-15T12:44:09;98588.00;;;9.68;50.01
62072;BME280;48031;48.542;13.232;2023-02-15T12:48:19;98576.84;;;9.51;49.89
62072;BME280;48031;48.542;13.232;2023-02-15T12:52:23;98567.25;;;9.04;49.57
62072;BME280;48031;48.542;13.232;2023-02-15T12:56:26;98565.66;;;9.34;49.27
62072;BME280;48031;48.542;13.232;2023-02-15T13:00:29;98568.22;;;8.39;52.66
62072;BME280;48031;48.542;13.232;2023-02-15T13:04:33;98558.56;;;8.82;50.63
62072;BME280;48031;48.542;13.232;2023-02-15T13:08:48;98556.41;;;9.48;50.31
62072;BME280;48031;48.542;13.232;2023-02-15T13:12:52;98551.44;;;9.45;50.06
62072;BME280;48031;48.542;13.232;2023-02-15T13:16:58;98543.97;;;8.96;51.51
62072;BME280;48031;48.542;13.232;2023-02-15T13:21:11;98543.09;;;9.47;50.65
62072;BME280;48031;48.542;13.232;2023-02-15T13:25:20;98529.91;;;9.19;51.14
62072;BME280;48031;48.542;13.232;2023-02-15T13:29:56;98527.00;;;9.14;50.90
62072;BME280;48031;48.542;13.232;2023-02-15T13:34:06;98526.44;;;8.92;50.95
62072;BME280;48031;48.542;13.232;2023-02-15T13:38:27;98535.91;;;7.65;55.53
62072;BME280;48031;48.542;13.232;2023-02-15T13:42:37;98520.38;;;8.32;53.84
62072;BME280;48031;48.542;13.232;2023-02-15T14:00:22;98512.22;;;7.86;54.19
62072;BME280;48031;48.542;13.232;2023-02-15T14:04:43;98507.94;;;9.65;50.19
62072;BME280;48031;48.542;13.232;2023-02-15T14:09:08;98502.41;;;9.15;50.60
62072;BME280;48031;48.542;13.232;2023-02-15T14:17:51;98519.09;;;9.50;50.93
62072;BME280;48031;48.542;13.232;2023-02-15T14:22:05;98514.94;;;9.03;51.44
62072;BME280;48031;48.542;13.232;2023-02-15T14:26:18;98512.13;;;8.85;52.49
62072;BME280;48031;48.542;13.232;2023-02-15T14:30:26;98498.72;;;8.39;53.33
62072;BME280;48031;48.542;13.232;2023-02-15T14:34:42;98502.53;;;9.34;50.65
62072;BME280;48031;48.542;13.232;2023-02-15T14:43:22;98497.25;;;8.37;52.75
62072;BME280;48031;48.542;13.232;2023-02-15T14:47:37;98498.72;;;8.32;52.62
62072;BME280;48031;48.542;13.232;2023-02-15T14:55:44;98496.59;;;8.48;52.26
62072;BME280;48031;48.542;13.232;2023-02-15T14:59:56;98493.88;;;8.67;53.21
62072;BME280;48031;48.542;13.232;2023-02-15T15:04:05;98506.88;;;8.97;52.24
62072;BME280;48031;48.542;13.232;2023-02-15T15:08:42;98500.72;;;9.14;51.43
62072;BME280;48031;48.542;13.232;2023-02-15T15:12:44;98507.03;;;8.18;53.40
62072;BME280;48031;48.542;13.232;2023-02-15T15:16:48;98500.22;;;8.93;52.10
62072;BME280;48031;48.542;13.232;2023-02-15T15:20:51;98499.50;;;8.53;52.53
62072;BME280;48031;48.542;13.232;2023-02-15T15:25:01;98494.97;;;8.40;53.30
62072;BME280;48031;48.542;13.232;2023-02-15T15:29:03;98498.72;;;7.93;54.33
62072;BME280;48031;48.542;13.232;2023-02-15T15:37:46;98490.38;;;8.14;53.94
62072;BME280;48031;48.542;13.232;2023-02-15T15:50:46;98495.72;;;6.61;57.60
62072;BME280;48031;48.542;13.232;2023-02-15T15:54:54;98499.13;;;7.64;55.51
62072;BME280;48031;48.542;13.232;2023-02-15T15:59:00;98504.13;;;7.93;53.50
62072;BME280;48031;48.542;13.232;2023-02-15T16:03:03;98503.25;;;7.53;54.94
62072;BME280;48031;48.542;13.232;2023-02-15T16:11:25;98493.13;;;8.08;54.37
62072;BME280;48031;48.542;13.232;2023-02-15T16:15:36;98489.13;;;8.37;53.25
62072;BME280;48031;48.542;13.232;2023-02-15T16:19:43;98495.63;;;7.89;53.93
62072;BME280;48031;48.542;13.232;2023-02-15T16:28:12;98498.75;;;7.80;54.59
62072;BME280;48031;48.542;13.232;2023-02-15T16:32:22;98494.56;;;7.97;54.81
62072;BME280;48031;48.542;13.232;2023-02-15T16:36:27;98513.28;;;7.99;54.02
62072;BME280;48031;48.542;13.232;2023-02-15T16:40:46;98511.81;;;8.09;55.00
62072;BME280;48031;48.542;13.232;2023-02-15T16:49:15;98511.81;;;8.22;54.04
62072;BME280;48031;48.542;13.232;2023-02-15T16:53:23;98512.25;;;8.00;54.86
62072;BME280;48031;48.542;13.232;2023-02-15T16:57:35;98519.09;;;7.63;56.62
62072;BME280;48031;48.542;13.232;2023-02-15T17:01:38;98523.69;;;7.69;54.64
62072;BME280;48031;48.542;13.232;2023-02-15T17:05:48;98523.88;;;7.80;55.50
62072;BME280;48031;48.542;13.232;2023-02-15T17:09:52;98521.19;;;8.33;53.81
62072;BME280;48031;48.542;13.232;2023-02-15T17:18:12;98519.94;;;8.03;54.37
62072;BME280;48031;48.542;13.232;2023-02-15T17:22:22;98524.72;;;8.27;53.81
62072;BME280;48031;48.542;13.232;2023-02-15T17:26:28;98531.38;;;7.78;55.07
62072;BME280;48031;48.542;13.232;2023-02-15T17:30:32;98531.13;;;6.93;57.32
62072;BME280;48031;48.542;13.232;2023-02-15T17:42:58;98522.56;;;6.42;57.58
62072;BME280;48031;48.542;13.232;2023-02-15T17:47:00;98523.97;;;7.20;55.18
62072;BME280;48031;48.542;13.232;2023-02-15T17:51:04;98529.50;;;7.72;54.80
62072;BME280;48031;48.542;13.232;2023-02-15T17:55:13;98538.00;;;7.63;56.19
62072;BME280;48031;48.542;13.232;2023-02-15T17:59:34;98537.94;;;7.36;55.22
62072;BME280;48031;48.542;13.232;2023-02-15T18:03:49;98553.41;;;7.88;55.22
62072;BME280;48031;48.542;13.232;2023-02-15T18:08:12;98550.69;;;7.69;55.66
62072;BME280;48031;48.542;13.232;2023-02-15T18:12:35;98554.78;;;7.38;55.29
62072;BME280;48031;48.542;13.232;2023-02-15T18:16:41;98548.88;;;6.67;57.24
62072;BME280;48031;48.542;13.232;2023-02-15T18:20:44;98545.22;;;7.42;55.39
62072;BME280;48031;48.542;13.232;2023-02-15T18:24:47;98544.22;;;7.57;55.16
62072;BME280;48031;48.542;13.232;2023-02-15T18:28:49;98552.09;;;7.45;55.58
62072;BME280;48031;48.542;13.232;2023-02-15T18:32:53;98545.72;;;7.79;54.93
62072;BME280;48031;48.542;13.232;2023-02-15T18:36:58;98549.03;;;7.68;55.77
62072;BME280;48031;48.542;13.232;2023-02-15T18:41:02;98549.94;;;6.73;57.86
62072;BME280;48031;48.542;13.232;2023-02-15T18:45:24;98542.97;;;7.46;56.65
62072;BME280;48031;48.542;13.232;2023-02-15T18:49:29;98540.63;;;7.36;56.23
62072;BME280;48031;48.542;13.232;2023-02-15T18:53:30;98539.34;;;7.26;56.99
62072;BME280;48031;48.542;13.232;2023-02-15T18:57:32;98529.50;;;6.98;57.82
62072;BME280;48031;48.542;13.232;2023-02-15T19:01:34;98540.06;;;7.54;56.09
62072;BME280;48031;48.542;13.232;2023-02-15T19:05:36;98544.50;;;7.14;57.09
62072;BME280;48031;48.542;13.232;2023-02-15T19:09:39;98540.44;;;6.84;57.60
62072;BME280;48031;48.542;13.232;2023-02-15T19:13:41;98541.78;;;6.32;59.71
62072;BME280;48031;48.542;13.232;2023-02-15T19:17:43;98538.59;;;7.51;55.88
62072;BME280;48031;48.542;13.232;2023-02-15T19:21:45;98538.41;;;7.46;55.91
62072;BME280;48031;48.542;13.232;2023-02-15T19:25:47;98534.59;;;7.28;56.52
62072;BME280;48031;48.542;13.232;2023-02-15T19:29:50;98532.91;;;7.20;56.99
62072;BME280;48031;48.542;13.232;2023-02-15T19:33:53;98533.31;;;6.69;59.66
62072;BME280;48031;48.542;13.232;2023-02-15T19:37:57;98539.56;;;6.77;59.15
62072;BME280;48031;48.542;13.232;2023-02-15T19:42:00;98537.72;;;6.77;57.23
62072;BME280;48031;48.542;13.232;2023-02-15T19:46:01;98549.53;;;6.42;59.99
62072;BME280;48031;48.542;13.232;2023-02-15T19:50:04;98559.00;;;7.00;57.77
62072;BME280;48031;48.542;13.232;2023-02-15T19:54:27;98546.28;;;7.55;56.00
62072;BME280;48031;48.542;13.232;2023-02-15T19:58:29;98546.53;;;6.99;58.28
62072;BME280;48031;48.542;13.232;2023-02-15T20:02:31;98544.63;;;6.93;58.57
62072;BME280;48031;48.542;13.232;2023-02-15T20:06:32;98547.19;;;7.07;58.33
62072;BME280;48031;48.542;13.232;2023-02-15T20:10:34;98547.44;;;7.13;58.59
62072;BME280;48031;48.542;13.232;2023-02-15T20:14:36;98551.28;;;7.51;57.25
62072;BME280;48031;48.542;13.232;2023-02-15T20:18:38;98550.19;;;7.39;57.18
62072;BME280;48031;48.542;13.232;2023-02-15T20:22:41;98544.78;;;7.32;56.61
62072;BME280;48031;48.542;13.232;2023-02-15T20:26:45;98548.31;;;6.79;59.02
62072;BME280;48031;48.542;13.232;2023-02-15T20:30:47;98545.19;;;7.36;57.32
62072;BME280;48031;48.542;13.232;2023-02-15T20:34:49;98549.38;;;6.50;59.46
62072;BME280;48031;48.542;13.232;2023-02-15T20:38:51;98551.06;;;6.51;60.49
62072;BME280;48031;48.542;13.232;2023-02-15T20:42:54;98534.59;;;6.80;57.64
62072;BME280;48031;48.542;13.232;2023-02-15T20:46:57;98554.72;;;7.25;56.16
62072;BME280;48031;48.542;13.232;2023-02-15T20:51:01;98549.38;;;6.50;58.04
62072;BME280;48031;48.542;13.232;2023-02-15T20:55:11;98542.56;;;6.26;59.77
62072;BME280;48031;48.542;13.232;2023-02-15T21:03:24;98549.50;;;7.17;58.86
62072;BME280;48031;48.542;13.232;2023-02-15T21:07:31;98545.06;;;6.00;61.47
62072;BME280;48031;48.542;13.232;2023-02-15T21:11:33;98539.88;;;5.98;62.87
62072;BME280;48031;48.542;13.232;2023-02-15T21:15:37;98538.19;;;5.91;63.48
62072;BME280;48031;48.542;13.232;2023-02-15T21:19:42;98535.13;;;5.58;63.32
62072;BME280;48031;48.542;13.232;2023-02-15T21:23:44;98544.91;;;5.86;64.17
62072;BME280;48031;48.542;13.232;2023-02-15T21:27:45;98540.56;;;5.64;65.18
62072;BME280;48031;48.542;13.232;2023-02-15T21:31:47;98548.38;;;5.80;63.17
62072;BME280;48031;48.542;13.232;2023-02-15T21:35:52;98550.41;;;6.21;63.85
62072;BME280;48031;48.542;13.232;2023-02-15T21:39:55;98545.97;;;6.07;64.34
62072;BME280;48031;48.542;13.232;2023-02-15T21:43:56;98541.78;;;5.83;63.98
62072;BME280;48031;48.542;13.232;2023-02-15T21:48:17;98547.97;;;5.56;63.96
62072;BME280;48031;48.542;13.232;2023-02-15T21:52:21;98551.94;;;5.60;64.51
62072;BME280;48031;48.542;13.232;2023-02-15T21:56:23;98543.22;;;5.00;66.29
62072;BME280;48031;48.542;13.232;2023-02-15T22:00:27;98553.66;;;5.67;66.70
62072;BME280;48031;48.542;13.232;2023-02-15T22:04:29;98557.22;;;5.89;66.40
62072;BME280;48031;48.542;13.232;2023-02-15T22:08:31;98543.34;;;5.50;66.20
62072;BME280;48031;48.542;13.232;2023-02-15T22:12:33;98540.31;;;5.80;64.56
62072;BME280;48031;48.542;13.232;2023-02-15T22:16:35;98540.13;;;5.82;63.79
62072;BME280;48031;48.542;13.232;2023-02-15T22:20:37;98535.38;;;6.05;64.33
62072;BME280;48031;48.542;13.232;2023-02-15T22:24:39;98537.34;;;6.18;62.16
62072;BME280;48031;48.542;13.232;2023-02-15T22:28:41;98530.69;;;6.48;62.38
62072;BME280;48031;48.542;13.232;2023-02-15T22:32:43;98517.91;;;7.11;60.11
62072;BME280;48031;48.542;13.232;2023-02-15T22:36:45;98522.84;;;6.94;58.67
62072;BME280;48031;48.542;13.232;2023-02-15T22:40:48;98528.56;;;7.26;58.34
62072;BME280;48031;48.542;13.232;2023-02-15T22:44:52;98527.00;;;6.90;58.85
62072;BME280;48031;48.542;13.232;2023-02-15T22:48:54;98532.53;;;6.82;59.60
62072;BME280;48031;48.542;13.232;2023-02-15T22:52:59;98525.09;;;6.15;63.22
62072;BME280;48031;48.542;13.232;2023-02-15T22:57:01;98535.38;;;6.67;58.73
62072;BME280;48031;48.542;13.232;2023-02-15T23:01:03;98529.25;;;6.46;60.01
62072;BME280;48031;48.542;13.232;2023-02-15T23:05:22;98530.16;;;7.14;60.41
62072;BME280;48031;48.542;13.232;2023-02-15T23:09:25;98535.53;;;6.59;59.22
62072;BME280;48031;48.542;13.232;2023-02-15T23:13:31;98537.63;;;6.64;59.50
62072;BME280;48031;48.542;13.232;2023-02-15T23:17:33;98537.00;;;7.09;57.08
62072;BME280;48031;48.542;13.232;2023-02-15T23:21:35;98534.03;;;6.85;59.12
62072;BME280;48031;48.542;13.232;2023-02-15T23:25:38;98529.09;;;6.60;58.38
62072;BME280;48031;48.542;13.232;2023-02-15T23:29:40;98526.06;;;6.08;60.21
62072;BME280;48031;48.542;13.232;2023-02-15T23:33:42;98522.22;;;6.58;58.95
62072;BME280;48031;48.542;13.232;2023-02-15T23:37:44;98523.44;;;6.90;56.96
62072;BME280;48031;48.542;13.232;2023-02-15T23:41:46;98516.31;;;6.07;59.39
62072;BME280;48031;48.542;13.232;2023-02-15T23:45:48;98508.09;;;6.90;57.17
62072;BME280;48031;48.542;13.232;2023-02-15T23:49:50;98505.47;;;7.10;57.12
62072;BME280;48031;48.542;13.232;2023-02-15T23:53:51;98506.22;;;6.50;58.62
62072;BME280;48031;48.542;13.232;2023-02-15T23:57:53;98507.50;;;7.08;58.02
